Angier, North Carolina
Current Conditions -  °F | °C
As of 11:15 AM on Saturday 25 Oct 2014 (Local Time) from KHRJ Reporting Station
Clear Clear  
Wind Chill: 62°   Ceiling: Unl
Heat Index: 62°   Visibility: 10mi
Dew Point: 44°   Wind: 0mph
Humidity: 53%   Direction: NA
Pressure: 30.02"   Gusts: NA
Location:  35.51°N, 78.74°W
Report Text: KHRJ 251515Z AUTO 00000KT 10SM CLR 17/07 A3002 RMK AO2 T01650068
Loading
Personal Weather Stations






























Interactive Weather Map New forecast layout! Learn more

10-Day Weather Forecast

Advertisements
Track Severe Weather on mobile